createdAt,value
2022-08-02T00:01:06.233Z,1.30
2022-08-02T00:03:36.460Z,1.30
2022-08-02T00:06:05.399Z,2.40
2022-08-02T00:08:34.509Z,2.73
2022-08-02T00:11:03.243Z,1.77
2022-08-02T00:13:32.049Z,1.30
2022-08-02T00:16:00.825Z,2.50
2022-08-02T00:18:29.684Z,1.37
2022-08-02T00:21:00.057Z,1.90
2022-08-02T00:23:28.843Z,1.30
2022-08-02T00:25:58.155Z,1.37
2022-08-02T00:28:28.425Z,1.87
2022-08-02T00:30:58.871Z,1.60
2022-08-02T00:34:26.537Z,2.17
2022-08-02T00:36:18.585Z,2.20
2022-08-02T00:38:48.584Z,1.80
2022-08-02T00:41:20.820Z,1.30
2022-08-02T00:43:52.748Z,1.40
2022-08-02T00:46:22.706Z,1.40
2022-08-02T00:48:51.530Z,1.00
2022-08-02T00:51:21.727Z,1.50
2022-08-02T00:53:50.466Z,1.20
2022-08-02T00:56:19.245Z,1.40
2022-08-02T00:58:48.107Z,1.77
2022-08-02T01:01:17.359Z,1.83
2022-08-02T01:03:46.132Z,1.50
2022-08-02T01:06:14.890Z,1.50
2022-08-02T01:08:45.089Z,1.90
2022-08-02T01:11:14.032Z,1.60
2022-08-02T01:13:43.343Z,1.70
2022-08-02T01:16:20.320Z,4.03
2022-08-02T01:18:58.809Z,1.43
2022-08-02T01:22:15.733Z,1.20
2022-08-02T01:25:16.370Z,2.40
2022-08-02T01:28:10.415Z,2.63
2022-08-02T01:30:44.336Z,1.30
2022-08-02T01:33:19.877Z,1.20
2022-08-02T01:35:58.161Z,1.40
2022-08-02T01:38:36.586Z,2.60
2022-08-02T01:41:09.299Z,2.50
2022-08-02T01:43:43.604Z,1.40
2022-08-02T01:46:15.450Z,1.50
2022-08-02T01:48:47.903Z,2.37
2022-08-02T01:51:41.462Z,1.20
2022-08-02T01:54:15.649Z,2.03
2022-08-02T01:56:46.823Z,1.60
2022-08-02T01:59:23.030Z,3.20
2022-08-02T02:01:56.683Z,1.40
2022-08-02T02:04:29.282Z,2.40
2022-08-02T02:06:59.400Z,1.40
2022-08-02T02:09:31.772Z,3.03
2022-08-02T02:12:06.568Z,2.70
2022-08-02T02:14:51.646Z,3.37
2022-08-02T02:17:57.100Z,2.00
2022-08-02T02:20:17.278Z,1.40
2022-08-02T02:22:49.923Z,1.97
2022-08-02T02:25:24.944Z,1.40
2022-08-02T02:28:13.299Z,2.07
2022-08-02T02:30:50.020Z,2.13
2022-08-02T02:33:24.211Z,1.87
2022-08-02T02:35:56.811Z,3.30
2022-08-02T02:38:31.866Z,2.07
2022-08-02T02:41:04.617Z,1.50
2022-08-02T02:43:36.775Z,2.53
2022-08-02T02:46:09.237Z,2.13
2022-08-02T02:48:39.145Z,1.57
2022-08-02T02:51:14.010Z,1.70
2022-08-02T02:54:31.111Z,2.73
2022-08-02T02:56:34.287Z,1.80
2022-08-02T02:59:04.261Z,3.00
2022-08-02T03:01:55.714Z,1.70
2022-08-02T03:04:26.284Z,1.90
2022-08-02T03:06:55.507Z,1.63
2022-08-02T03:09:24.384Z,1.57
2022-08-02T03:11:55.003Z,2.17
2022-08-02T03:14:24.702Z,2.00
2022-08-02T03:16:56.337Z,1.73
2022-08-02T03:19:25.366Z,2.50
2022-08-02T03:22:02.213Z,2.17
2022-08-02T03:24:30.920Z,3.30
2022-08-02T03:26:59.682Z,2.40
2022-08-02T03:29:31.454Z,2.50
2022-08-02T03:32:04.543Z,3.73
2022-08-02T03:34:33.597Z,1.60
2022-08-02T03:37:04.087Z,2.73
2022-08-02T03:39:34.279Z,1.60
2022-08-02T03:42:03.304Z,2.27
2022-08-02T03:44:33.681Z,1.97
2022-08-02T03:47:04.251Z,3.17
2022-08-02T03:49:33.331Z,2.00
2022-08-02T03:52:05.194Z,2.83
2022-08-02T03:54:34.736Z,1.93
2022-08-02T03:57:15.977Z,2.37
2022-08-02T03:59:46.821Z,3.37
2022-08-02T04:02:17.216Z,2.83
2022-08-02T04:04:46.954Z,2.73
2022-08-02T04:08:02.566Z,2.90
2022-08-02T04:10:11.221Z,2.47
2022-08-02T04:12:40.849Z,1.80
2022-08-02T04:16:21.079Z,1.73
2022-08-02T04:19:15.111Z,2.83
2022-08-02T04:21:52.174Z,4.40
2022-08-02T04:24:28.290Z,3.20
2022-08-02T04:27:06.547Z,2.37
2022-08-02T04:29:50.208Z,2.07
2022-08-02T04:32:20.163Z,5.27
2022-08-02T04:35:17.696Z,2.87
2022-08-02T04:38:08.655Z,2.73
2022-08-02T04:40:30.527Z,1.97
2022-08-02T04:42:59.286Z,3.40
2022-08-02T04:45:30.817Z,3.30
2022-08-02T04:48:06.886Z,2.13
2022-08-02T04:50:37.301Z,6.70
2022-08-02T04:53:06.395Z,1.87
2022-08-02T04:55:35.268Z,2.10
2022-08-02T04:58:18.335Z,3.43
2022-08-02T05:00:53.055Z,2.03
2022-08-02T05:03:22.311Z,2.63
2022-08-02T05:05:52.743Z,2.30
2022-08-02T05:08:22.000Z,2.03
2022-08-02T05:10:50.752Z,3.97
2022-08-02T05:13:21.041Z,3.43
2022-08-02T05:15:51.110Z,2.27
2022-08-02T05:18:20.160Z,2.37
2022-08-02T05:20:49.102Z,2.83
2022-08-02T05:23:21.384Z,4.03
2022-08-02T05:25:50.255Z,2.07
2022-08-02T05:28:50.161Z,3.50
2022-08-02T05:31:19.088Z,2.90
2022-08-02T05:33:52.154Z,2.87
2022-08-02T05:36:21.639Z,2.80
2022-08-02T05:38:52.974Z,5.07
2022-08-02T05:41:28.683Z,2.73
2022-08-02T05:43:57.417Z,4.57
2022-08-02T05:46:29.295Z,2.10
2022-08-02T05:48:58.507Z,2.03
2022-08-02T05:51:37.266Z,2.83
2022-08-02T05:54:20.626Z,3.20
2022-08-02T05:57:02.206Z,3.33
2022-08-02T05:59:42.233Z,5.37
2022-08-02T06:02:21.656Z,3.10
2022-08-02T06:05:11.649Z,4.73
2022-08-02T06:07:44.868Z,4.70
2022-08-02T06:10:17.131Z,2.30
2022-08-02T06:12:51.615Z,4.50
2022-08-02T06:15:22.014Z,3.70
2022-08-02T06:17:53.221Z,2.83
2022-08-02T06:20:22.442Z,2.57
2022-08-02T06:22:53.912Z,2.27
2022-08-02T06:25:48.107Z,5.47
2022-08-02T06:28:18.191Z,3.87
2022-08-02T06:30:47.445Z,2.20
2022-08-02T06:33:16.686Z,5.53
2022-08-02T06:35:53.389Z,2.65
2022-08-02T06:38:28.775Z,4.53
2022-08-02T06:41:06.183Z,5.18
2022-08-02T06:43:46.264Z,3.22
2022-08-02T06:46:49.208Z,5.07
2022-08-02T06:49:05.958Z,4.10
2022-08-02T06:51:35.240Z,4.00
2022-08-02T06:54:04.003Z,3.58
2022-08-02T06:56:34.120Z,3.83
2022-08-02T06:59:06.079Z,2.60
2022-08-02T07:01:45.358Z,4.85
2022-08-02T07:04:20.236Z,3.15
2022-08-02T07:06:51.259Z,4.60
2022-08-02T07:09:22.011Z,4.97
2022-08-02T07:11:52.631Z,2.80
2022-08-02T07:14:21.759Z,5.15
2022-08-02T07:16:53.895Z,7.50
2022-08-02T07:19:25.373Z,4.03
2022-08-02T07:22:06.557Z,2.92
2022-08-02T07:24:35.528Z,6.85
2022-08-02T07:31:43.874Z,3.97
2022-08-02T07:34:12.619Z,4.70
2022-08-02T07:36:41.433Z,4.90
2022-08-02T07:39:17.546Z,4.93
2022-08-02T07:41:46.615Z,4.68
2022-08-02T07:44:15.476Z,3.50
2022-08-02T07:46:46.119Z,5.13
2022-08-02T07:49:18.717Z,4.22
2022-08-02T07:51:47.653Z,4.57
2022-08-02T07:54:16.962Z,4.60
2022-08-02T07:56:46.058Z,4.00
2022-08-02T07:59:14.878Z,4.75
2022-08-02T08:01:46.167Z,3.38
2022-08-02T08:04:15.156Z,3.25
2022-08-02T08:06:43.982Z,2.70
2022-08-02T08:09:13.058Z,3.88
2022-08-02T08:11:41.785Z,5.63
2022-08-02T08:14:16.188Z,4.53
2022-08-02T08:16:47.024Z,5.25
2022-08-02T08:19:15.952Z,2.67
2022-08-02T08:21:44.737Z,2.20
2022-08-02T08:24:13.577Z,2.42
2022-08-02T08:26:42.321Z,2.92
2022-08-02T08:29:11.629Z,2.85
2022-08-02T08:31:41.735Z,2.00
2022-08-02T08:34:11.909Z,4.80
2022-08-02T08:36:40.762Z,2.30
2022-08-02T08:39:10.324Z,3.55
2022-08-02T08:41:39.578Z,2.05
2022-08-02T08:44:11.826Z,4.68
2022-08-02T08:46:44.710Z,5.03
2022-08-02T08:49:26.924Z,4.57
2022-08-02T08:51:58.139Z,3.35
2022-08-02T08:54:31.394Z,5.10
2022-08-02T08:57:02.080Z,4.47
2022-08-02T08:59:39.298Z,3.13
2022-08-02T09:02:19.745Z,4.03
2022-08-02T09:04:55.300Z,2.80
2022-08-02T09:07:24.513Z,2.95
2022-08-02T09:09:53.399Z,4.18
2022-08-02T09:12:25.213Z,1.88
2022-08-02T09:14:54.205Z,2.30
2022-08-02T09:17:23.053Z,3.83
2022-08-02T09:20:09.200Z,4.15
2022-08-02T09:22:38.405Z,1.92
2022-08-02T09:25:16.994Z,1.80
2022-08-02T09:28:58.124Z,1.58
2022-08-02T09:31:26.987Z,2.88
2022-08-02T09:33:57.913Z,1.52
2022-08-02T09:36:38.388Z,6.50
2022-08-02T09:39:13.902Z,3.65
2022-08-02T09:41:46.545Z,3.20
2022-08-02T09:44:17.350Z,4.68
2022-08-02T09:46:47.922Z,5.03
2022-08-02T09:49:20.670Z,4.25
2022-08-02T09:51:57.042Z,4.10
2022-08-02T09:54:29.872Z,6.63
2022-08-02T09:57:02.412Z,3.17
2022-08-02T09:59:31.800Z,2.30
2022-08-02T10:02:04.250Z,1.92
2022-08-02T10:04:52.394Z,2.08
2022-08-02T10:07:25.507Z,1.95
2022-08-02T10:09:54.551Z,1.77
2022-08-02T10:12:24.093Z,2.92
2022-08-02T10:14:54.253Z,3.38
2022-08-02T10:17:26.391Z,2.08
2022-08-02T10:20:03.429Z,3.83
2022-08-02T10:22:41.390Z,2.55
2022-08-02T10:25:11.121Z,1.85
2022-08-02T10:28:04.192Z,4.82
2022-08-02T10:30:33.159Z,1.80
2022-08-02T10:33:06.029Z,1.85
2022-08-02T10:35:39.271Z,1.80
2022-08-02T10:38:13.434Z,1.70
2022-08-02T10:40:57.843Z,2.67
2022-08-02T10:43:45.935Z,1.92
2022-08-02T10:46:33.727Z,1.83
2022-08-02T10:49:37.547Z,2.70
2022-08-02T10:52:12.590Z,2.80
2022-08-02T10:54:56.216Z,1.80
2022-08-02T10:57:28.428Z,1.75
2022-08-02T11:00:02.383Z,2.85
2022-08-02T11:02:42.315Z,2.30
2022-08-02T11:05:15.649Z,1.65
2022-08-02T11:07:49.647Z,1.70
2022-08-02T11:10:42.456Z,2.65
2022-08-02T11:13:17.465Z,1.73
2022-08-02T11:16:11.679Z,1.42
2022-08-02T11:19:07.155Z,1.63
2022-08-02T11:21:40.037Z,1.60
2022-08-02T11:24:32.691Z,2.00
2022-08-02T11:27:04.758Z,3.65
2022-08-02T11:29:38.621Z,2.97
2022-08-02T11:32:11.561Z,1.48
2022-08-02T11:34:42.064Z,2.08
2022-08-02T11:37:13.112Z,2.85
2022-08-02T11:39:42.478Z,1.60
2022-08-02T11:42:13.104Z,2.83
2022-08-02T11:44:43.734Z,2.30
2022-08-02T11:47:12.806Z,3.80
2022-08-02T11:49:43.157Z,3.45
2022-08-02T11:52:12.410Z,3.10
2022-08-02T11:54:43.917Z,1.17
2022-08-02T11:57:23.826Z,2.38
2022-08-02T11:59:54.907Z,2.95
2022-08-02T12:02:29.078Z,1.75
2022-08-02T12:05:00.528Z,1.55
2022-08-02T12:07:35.357Z,4.38
2022-08-02T12:10:09.936Z,2.28
2022-08-02T12:12:53.604Z,3.42
2022-08-02T12:15:35.273Z,2.75
2022-08-02T12:18:22.733Z,1.63
2022-08-02T12:20:51.838Z,2.28
2022-08-02T12:23:20.890Z,1.90
2022-08-02T12:26:02.330Z,3.40
2022-08-02T12:28:38.957Z,4.95
2022-08-02T12:31:10.656Z,2.28
2022-08-02T12:33:49.531Z,1.80
2022-08-02T12:36:19.908Z,2.05
2022-08-02T12:38:56.489Z,3.25
2022-08-02T12:41:31.478Z,3.60
2022-08-02T12:44:02.862Z,3.38
2022-08-02T12:46:41.873Z,4.25
2022-08-02T12:49:19.171Z,2.28
2022-08-02T12:51:50.762Z,2.03
2022-08-02T12:54:31.669Z,6.43
2022-08-02T12:57:12.792Z,2.00
2022-08-02T12:59:46.142Z,2.28
2022-08-02T13:02:18.166Z,2.78
2022-08-02T13:04:50.036Z,3.42
2022-08-02T13:07:20.438Z,2.08
2022-08-02T13:09:50.223Z,6.05
2022-08-02T13:12:19.047Z,7.55
2022-08-02T13:14:49.295Z,10.85
2022-08-02T13:17:18.156Z,2.92
2022-08-02T13:19:51.893Z,1.95
2022-08-02T13:22:22.091Z,2.33
2022-08-02T13:24:55.271Z,2.55
2022-08-02T13:27:26.593Z,1.83
2022-08-02T13:29:58.581Z,3.30
2022-08-02T13:32:29.094Z,4.05
2022-08-02T13:34:59.117Z,1.90
2022-08-02T13:37:28.340Z,2.60
2022-08-02T13:40:19.901Z,1.83
2022-08-02T13:42:45.940Z,1.85
2022-08-02T13:45:16.244Z,1.40
2022-08-02T13:47:57.535Z,2.53
2022-08-02T13:50:35.548Z,2.78
2022-08-02T13:53:05.370Z,2.03
2022-08-02T13:55:34.858Z,1.88
2022-08-02T13:58:10.083Z,3.33
2022-08-02T14:00:40.477Z,1.60
2022-08-02T14:03:12.301Z,2.50
2022-08-02T14:05:48.328Z,2.70
2022-08-02T14:08:20.809Z,2.75
2022-08-02T14:10:51.226Z,3.35
2022-08-02T14:13:20.454Z,1.52
2022-08-02T14:15:51.161Z,2.50
2022-08-02T14:18:20.515Z,4.10
2022-08-02T14:20:49.451Z,1.52
2022-08-02T14:23:19.358Z,2.47
2022-08-02T14:26:14.137Z,2.38
2022-08-02T14:28:55.597Z,10.15
2022-08-02T14:31:25.781Z,8.32
2022-08-02T14:33:54.667Z,4.05
2022-08-02T14:36:27.536Z,8.52
2022-08-02T14:38:57.730Z,5.03
2022-08-02T14:41:29.220Z,7.22
2022-08-02T14:44:08.930Z,6.28
2022-08-02T14:46:55.379Z,3.25
2022-08-02T14:49:26.776Z,3.50
2022-08-02T14:51:56.547Z,6.57
2022-08-02T14:54:30.419Z,3.83
2022-08-02T14:57:02.317Z,3.55
2022-08-02T14:59:31.947Z,4.35
2022-08-02T15:02:02.518Z,5.45
2022-08-02T15:04:34.351Z,1.98
2022-08-02T15:07:14.912Z,5.18
2022-08-02T15:09:43.777Z,1.90
2022-08-02T15:12:14.183Z,1.75
2022-08-02T15:14:44.268Z,2.30
2022-08-02T15:17:18.973Z,3.17
2022-08-02T15:19:57.757Z,2.40
2022-08-02T15:22:29.209Z,2.33
2022-08-02T15:24:58.197Z,3.72
2022-08-02T15:27:27.099Z,3.38
2022-08-02T15:30:01.913Z,1.88
2022-08-02T15:32:33.510Z,3.80
2022-08-02T15:35:02.489Z,2.50
2022-08-02T15:37:32.529Z,3.90
2022-08-02T15:40:02.378Z,2.00
2022-08-02T15:42:31.379Z,4.45
2022-08-02T15:45:01.193Z,4.53
2022-08-02T15:47:30.195Z,2.95
2022-08-02T15:50:04.255Z,2.33
2022-08-02T15:52:39.321Z,2.70
2022-08-02T15:55:13.138Z,1.52
2022-08-02T15:57:42.754Z,1.65
2022-08-02T16:00:18.011Z,1.75
2022-08-02T16:02:48.531Z,3.60
2022-08-02T16:05:21.723Z,3.28
2022-08-02T16:07:50.749Z,1.90
2022-08-02T16:10:20.772Z,3.63
2022-08-02T16:12:53.061Z,3.30
2022-08-02T16:15:28.672Z,4.18
2022-08-02T16:17:58.551Z,5.13
2022-08-02T16:20:34.673Z,8.07
2022-08-02T16:23:04.908Z,5.38
2022-08-02T16:25:41.756Z,4.10
2022-08-02T16:28:12.751Z,3.67
2022-08-02T16:30:54.150Z,2.03
2022-08-02T16:33:33.255Z,5.18
2022-08-02T16:36:05.221Z,2.80
2022-08-02T16:38:36.664Z,8.07
2022-08-02T16:41:06.960Z,2.97
2022-08-02T16:43:38.197Z,5.07
2022-08-02T16:46:09.976Z,7.35
2022-08-02T16:48:51.042Z,4.32
2022-08-02T16:51:22.708Z,4.13
2022-08-02T16:53:59.837Z,4.20
2022-08-02T16:56:35.688Z,5.88
2022-08-02T16:59:05.133Z,7.90
2022-08-02T17:02:11.109Z,10.70
2022-08-02T17:04:33.871Z,9.85
2022-08-02T17:10:03.776Z,6.35
2022-08-02T17:12:36.137Z,6.15
2022-08-02T17:16:01.588Z,3.13
2022-08-02T17:17:58.710Z,5.80
2022-08-02T17:20:30.236Z,6.03
2022-08-02T17:23:02.619Z,6.60
2022-08-02T17:25:35.781Z,3.92
2022-08-02T17:28:11.167Z,1.90
2022-08-02T17:30:41.985Z,4.13
2022-08-02T17:33:11.763Z,6.18
2022-08-02T17:35:52.020Z,5.22
2022-08-02T17:38:26.634Z,4.93
2022-08-02T17:41:00.879Z,5.20
2022-08-02T17:43:36.395Z,3.13
2022-08-02T17:46:11.228Z,3.92
2022-08-02T17:49:00.138Z,5.20
2022-08-02T17:52:15.466Z,4.65
2022-08-02T17:54:23.093Z,4.97
2022-08-02T17:56:52.772Z,5.20
2022-08-02T17:59:31.133Z,6.82
2022-08-02T18:02:11.468Z,5.68
2022-08-02T18:04:46.222Z,4.93
2022-08-02T18:07:23.610Z,9.70
2022-08-02T18:09:55.531Z,11.30
2022-08-02T18:12:24.320Z,16.75
2022-08-02T18:14:53.318Z,8.55
2022-08-02T18:17:22.369Z,12.68
2022-08-02T18:19:57.355Z,6.00
2022-08-02T18:22:32.534Z,7.30
2022-08-02T18:25:09.028Z,8.98
2022-08-02T18:27:38.853Z,8.48
2022-08-02T18:30:09.440Z,4.85
2022-08-02T18:33:57.154Z,8.65
2022-08-02T18:35:30.174Z,101.05
2022-08-02T18:38:03.657Z,7.57
2022-08-02T18:40:35.105Z,7.75
2022-08-02T18:43:07.211Z,5.45
2022-08-02T18:46:05.523Z,12.20
2022-08-02T18:48:30.175Z,8.63
2022-08-02T18:51:00.206Z,10.95
2022-08-02T18:53:41.594Z,12.40
2022-08-02T18:56:20.446Z,10.13
2022-08-02T18:58:56.077Z,14.27
2022-08-02T19:01:32.137Z,17.90
2022-08-02T19:04:05.903Z,13.40
2022-08-02T19:06:38.943Z,19.65
2022-08-02T19:09:12.988Z,15.13
2022-08-02T19:11:47.469Z,20.40
2022-08-02T19:14:28.366Z,32.88
2022-08-02T19:17:15.835Z,40.45
2022-08-02T19:19:53.467Z,36.33
2022-08-02T19:22:35.201Z,61.63
2022-08-02T19:25:05.141Z,45.72
2022-08-02T19:27:41.487Z,38.65
2022-08-02T19:30:18.556Z,34.03
2022-08-02T19:32:59.044Z,41.47
2022-08-02T19:35:34.247Z,43.90
2022-08-02T19:38:11.691Z,45.15
2022-08-02T19:40:43.045Z,41.72
2022-08-02T19:44:24.290Z,34.60
2022-08-02T19:46:09.137Z,24.30
2022-08-02T19:48:46.210Z,30.23
2022-08-02T19:51:16.254Z,28.63
2022-08-02T19:54:05.047Z,12.48
2022-08-02T19:56:40.372Z,17.52
2022-08-02T19:59:13.623Z,8.30
2022-08-02T20:01:48.494Z,8.15
2022-08-02T20:04:28.401Z,8.35
2022-08-02T20:06:57.375Z,4.93
2022-08-02T20:09:33.484Z,10.32
2022-08-02T20:12:16.591Z,6.00
2022-08-02T20:14:51.102Z,3.70
2022-08-02T20:17:21.222Z,5.18
2022-08-02T20:19:50.435Z,6.10
2022-08-02T20:22:21.261Z,6.20
2022-08-02T20:24:50.145Z,5.03
2022-08-02T20:27:22.995Z,4.88
2022-08-02T20:29:55.301Z,6.43
2022-08-02T20:32:24.230Z,7.30
2022-08-02T20:34:53.412Z,4.80
2022-08-02T20:37:59.191Z,4.53
2022-08-02T20:40:16.748Z,6.15
2022-08-02T20:42:48.435Z,5.72
2022-08-02T20:45:19.436Z,8.43
2022-08-02T20:47:52.435Z,4.85
2022-08-02T20:50:40.325Z,5.78
2022-08-02T20:53:23.699Z,5.03
2022-08-02T20:55:57.291Z,5.90
2022-08-02T20:58:27.074Z,4.57
2022-08-02T21:00:59.896Z,4.07
2022-08-02T21:03:39.531Z,3.88
2022-08-02T21:06:10.205Z,3.33
2022-08-02T21:08:39.279Z,5.22
2022-08-02T21:11:09.422Z,6.53
2022-08-02T21:13:47.105Z,5.22
2022-08-02T21:16:32.277Z,6.40
2022-08-02T21:19:02.781Z,5.15
2022-08-02T21:21:37.223Z,4.32
2022-08-02T21:24:07.073Z,5.20
2022-08-02T21:26:41.276Z,3.55
2022-08-02T21:29:10.884Z,4.18
2022-08-02T21:31:44.131Z,5.20
2022-08-02T21:34:26.605Z,6.30
2022-08-02T21:36:56.758Z,5.85
2022-08-02T21:39:26.039Z,7.57
2022-08-02T21:41:55.508Z,2.75
2022-08-02T21:44:24.980Z,4.20
2022-08-02T21:46:57.424Z,5.68
2022-08-02T21:50:08.543Z,5.35
2022-08-02T21:52:18.259Z,2.90
2022-08-02T21:54:47.796Z,4.45
2022-08-02T21:57:18.214Z,5.90
2022-08-02T21:59:55.429Z,2.75
2022-08-02T22:02:30.686Z,3.88
2022-08-02T22:05:02.590Z,4.15
2022-08-02T22:07:38.580Z,5.15
2022-08-02T22:10:10.466Z,2.97
2022-08-02T22:12:39.447Z,13.40
2022-08-02T22:15:10.754Z,6.20
2022-08-02T22:17:51.123Z,4.97
2022-08-02T22:20:22.956Z,4.88
2022-08-02T22:22:53.409Z,4.60
2022-08-02T22:25:31.109Z,3.00
2022-08-02T22:28:38.114Z,5.57
2022-08-02T22:31:00.046Z,9.07
2022-08-02T22:34:00.371Z,3.63
2022-08-02T22:36:31.656Z,5.20
2022-08-02T22:39:02.008Z,3.22
2022-08-02T22:41:41.777Z,3.97
2022-08-02T22:44:20.519Z,3.40
2022-08-02T22:46:50.310Z,3.33
2022-08-02T22:49:37.119Z,4.22
2022-08-02T22:52:10.589Z,5.15
2022-08-02T22:54:39.971Z,3.38
2022-08-02T22:57:11.286Z,3.50
2022-08-02T22:58:36.734Z,3.53
2022-08-02T22:59:41.668Z,5.63
2022-08-02T23:02:11.578Z,4.57
2022-08-02T23:04:41.910Z,3.80
2022-08-02T23:07:10.819Z,3.97
2022-08-02T23:09:39.893Z,6.25
2022-08-02T23:12:09.182Z,4.70
2022-08-02T23:14:38.000Z,2.97
2022-08-02T23:17:23.628Z,5.25
2022-08-02T23:19:54.034Z,6.10
2022-08-02T23:22:29.854Z,4.00
2022-08-02T23:25:02.435Z,3.40
2022-08-02T23:27:31.796Z,5.65
2022-08-02T23:30:01.880Z,6.05
2022-08-02T23:32:31.107Z,4.22
2022-08-02T23:35:01.486Z,2.58
2022-08-02T23:37:58.361Z,2.60
2022-08-02T23:40:38.843Z,3.75
2022-08-02T23:43:15.020Z,4.38
2022-08-02T23:45:46.441Z,2.95
2022-08-02T23:48:15.700Z,3.20
2022-08-02T23:50:46.016Z,3.00
2022-08-02T23:53:14.893Z,6.57
2022-08-02T23:55:43.718Z,4.50
2022-08-02T23:58:14.136Z,3.58
